Estación de Río Bueno

Ultimos registro cada 15 minutos 61
Estación Fecha / Hora Temperatura Humedad Lluvia Velocidad Dirección Radiación Presion
61 Río Bueno 05-05-2026 15:00 13,6 95,1 0,4 1,7 34 76,9 1003,7
60 Río Bueno 05-05-2026 14:45 13,4 95,5 0,8 1,3 38 65,6 1003,9
59 Río Bueno 05-05-2026 14:30 13,3 95,5 0,6 1 37 39,4 1004,2
58 Río Bueno 05-05-2026 14:15 13,2 95,6 1,6 0,7 52 50,6 1004,5
57 Río Bueno 05-05-2026 14:00 13,1 95,5 0,2 1,3 63 34,4 1004,6
56 Río Bueno 05-05-2026 13:45 13 95,8 0,2 1,3 65 95,6 1004,6
55 Río Bueno 05-05-2026 13:30 13 96,4 0,8 1,3 74 104,4 1004,5
54 Río Bueno 05-05-2026 13:15 12,8 96,3 0,6 0,3 72 44,4 1005
53 Río Bueno 05-05-2026 13:00 12,9 96,4 0,4 1 79 68,1 1005,2
52 Río Bueno 05-05-2026 12:45 12,8 96,7 0,8 1 84 86,9 1005,4
51 Río Bueno 05-05-2026 12:30 12,7 96,6 1,4 0,7 90 64,4 1005,7
50 Río Bueno 05-05-2026 12:15 12,5 96,5 2,2 0,3 185 34,4 1006,4
49 Río Bueno 05-05-2026 12:00 12,4 96,5 2,6 0,3 191 19,4 1006,2
48 Río Bueno 05-05-2026 11:45 12,3 96,6 2,6 0,3 168 14,4 1006,3
47 Río Bueno 05-05-2026 11:30 12,3 96,7 0,2 1 124 10,6 1006,4
46 Río Bueno 05-05-2026 11:15 12,3 96,7 1,2 1 66 19,4 1005,8
45 Río Bueno 05-05-2026 11:00 12,3 96,5 1 1 83 28,1 1006,3
44 Río Bueno 05-05-2026 10:45 12,3 95,5 1,4 1 72 33,1 1006,4
43 Río Bueno 05-05-2026 10:30 12,3 95,2 1,6 0,7 69 23,1 1006,9
42 Río Bueno 05-05-2026 10:15 12,3 94,8 1,6 0,7 37 6,9 1007
41 Río Bueno 05-05-2026 10:00 12,3 94,5 1,4 0,7 38 11,9 1007,2
40 Río Bueno 05-05-2026 09:45 12,4 93,5 0,6 1 25 5,6 1007,1
39 Río Bueno 05-05-2026 09:30 12,4 93,7 0,4 1,3 41 26,9 1006,8
38 Río Bueno 05-05-2026 09:15 12,5 92,5 0 1,3 35 20,6 1006,9
37 Río Bueno 05-05-2026 09:00 12,3 93,6 0,2 1 48 28,1 1007,2
36 Río Bueno 05-05-2026 08:45 12,1 94,4 0 1 52 18,1 1007,4
35 Río Bueno 05-05-2026 08:30 12 94,5 0,2 0,7 58 14,4 1007,6
34 Río Bueno 05-05-2026 08:15 12 94,1 0,6 0,7 48 6,9 1007,6
33 Río Bueno 05-05-2026 08:00 12,1 93,7 0,4 0,7 56 0,6 1007,9
32 Río Bueno 05-05-2026 07:45 12,1 93,5 0,2 0,3 63 0,6 1008
31 Río Bueno 05-05-2026 07:30 12,1 93,2 0 0,7 49 0,6 1007,9
30 Río Bueno 05-05-2026 07:15 12,2 93,4 0,2 1 49 0,6 1007,7
29 Río Bueno 05-05-2026 07:00 12,1 93,3 0 1 52 0,6 1007,8
28 Río Bueno 05-05-2026 06:45 12 94,1 0 0,7 44 0,6 1007,9
27 Río Bueno 05-05-2026 06:30 12,1 94,4 0 1 46 0,6 1007,8
26 Río Bueno 05-05-2026 06:15 12 94,8 0 1,3 55 0,6 1008
25 Río Bueno 05-05-2026 06:00 12 95,3 0 1 59 0,6 1008,2
24 Río Bueno 05-05-2026 05:45 12 95,3 0 1 49 0,6 1008,2
23 Río Bueno 05-05-2026 05:30 12 95,6 0 1 46 0,6 1008,2
22 Río Bueno 05-05-2026 05:15 12 95,5 0 0,7 45 0,6 1008,3
21 Río Bueno 05-05-2026 05:00 12 95,7 0 0,7 42 0,6 1008,3
20 Río Bueno 05-05-2026 04:45 12 95,9 0 0,7 39 0,6 1008,4
19 Río Bueno 05-05-2026 04:30 11,9 96,2 0 0,7 48 0,6 1008,3
18 Río Bueno 05-05-2026 04:15 11,9 96,4 0 0,7 42 0,6 1008,3
17 Río Bueno 05-05-2026 04:00 11,7 96,5 0 0,3 53 0,6 1008,5
16 Río Bueno 05-05-2026 03:45 11,7 96,4 0,2 0,3 48 0,6 1008,7
15 Río Bueno 05-05-2026 03:30 11,7 96,4 0,2 0,7 52 0,6 1008,8
14 Río Bueno 05-05-2026 03:15 11,6 96,3 1 0,3 56 0,6 1009
13 Río Bueno 05-05-2026 03:00 11,6 96,3 0,4 0 70 0,6 1009,3
12 Río Bueno 05-05-2026 02:45 11,5 96,3 0,2 0,3 76 0,6 1009,2
11 Río Bueno 05-05-2026 02:30 11,5 96,2 0,2 0 74 0,6 1009,3
10 Río Bueno 05-05-2026 02:15 11,4 96,2 0 0,3 69 0,6 1009,3
9 Río Bueno 05-05-2026 02:00 11,4 96,1 0,2 0,3 77 0,6 1009,1
8 Río Bueno 05-05-2026 01:45 11,4 96,1 0 0,3 90 0,6 1009,1
7 Río Bueno 05-05-2026 01:30 11,4 96 0,6 0,7 77 0,6 1009,2
6 Río Bueno 05-05-2026 01:15 11,4 96 0,6 0,3 65 0,6 1009,3
5 Río Bueno 05-05-2026 01:00 11,3 96 0,2 0 62 0,6 1009,4
4 Río Bueno 05-05-2026 00:45 11,3 95,8 0,2 0 62 0,6 1009,4
3 Río Bueno 05-05-2026 00:30 11,3 95,9 0,2 0,3 62 0,6 1009,5
2 Río Bueno 05-05-2026 00:15 11,3 95,8 0,6 0,3 62 0,6 1009,5
1 Río Bueno 05-05-2026 00:00 11,3 95,7 0,2 0,3 66 0,6 1009,7